sensor_id;sensor_type;location;lat;lon;timestamp;P1;durP1;ratioP1;P2;durP2;ratioP2
65764;SDS011;52915;53.718;19.946;2023-03-12T00:00:57;19.30;;;8.60;;
65764;SDS011;52915;53.718;19.946;2023-03-12T00:06:09;25.10;;;10.00;;
65764;SDS011;52915;53.718;19.946;2023-03-12T00:11:16;23.40;;;6.40;;
65764;SDS011;52915;53.718;19.946;2023-03-12T00:16:23;9.60;;;6.10;;
65764;SDS011;52915;53.718;19.946;2023-03-12T00:21:27;6.60;;;5.00;;
65764;SDS011;52915;53.718;19.946;2023-03-12T00:26:31;12.30;;;6.00;;
65764;SDS011;52915;53.718;19.946;2023-03-12T00:31:34;21.90;;;6.80;;
65764;SDS011;52915;53.718;19.946;2023-03-12T00:36:38;14.20;;;5.90;;
65764;SDS011;52915;53.718;19.946;2023-03-12T00:41:43;11.90;;;5.70;;
65764;SDS011;52915;53.718;19.946;2023-03-12T00:46:48;8.50;;;5.10;;
65764;SDS011;52915;53.718;19.946;2023-03-12T00:51:52;7.30;;;4.90;;
65764;SDS011;52915;53.718;19.946;2023-03-12T00:56:56;9.30;;;5.70;;
65764;SDS011;52915;53.718;19.946;2023-03-12T01:02:00;11.20;;;6.20;;
65764;SDS011;52915;53.718;19.946;2023-03-12T01:07:04;5.90;;;4.40;;
65764;SDS011;52915;53.718;19.946;2023-03-12T01:12:08;5.80;;;4.50;;
65764;SDS011;52915;53.718;19.946;2023-03-12T01:17:12;22.40;;;8.30;;
65764;SDS011;52915;53.718;19.946;2023-03-12T01:22:16;25.20;;;8.20;;
65764;SDS011;52915;53.718;19.946;2023-03-12T01:27:19;9.60;;;5.60;;
65764;SDS011;52915;53.718;19.946;2023-03-12T01:32:23;22.90;;;9.40;;
65764;SDS011;52915;53.718;19.946;2023-03-12T01:37:30;11.90;;;5.90;;
65764;SDS011;52915;53.718;19.946;2023-03-12T01:42:35;17.90;;;6.30;;
65764;SDS011;52915;53.718;19.946;2023-03-12T01:47:39;12.90;;;6.70;;
65764;SDS011;52915;53.718;19.946;2023-03-12T01:52:42;10.50;;;6.00;;
65764;SDS011;52915;53.718;19.946;2023-03-12T01:57:54;10.80;;;5.80;;
65764;SDS011;52915;53.718;19.946;2023-03-12T02:03:05;12.90;;;5.70;;
65764;SDS011;52915;53.718;19.946;2023-03-12T02:08:12;6.00;;;4.40;;
65764;SDS011;52915;53.718;19.946;2023-03-12T02:13:18;14.70;;;5.40;;
65764;SDS011;52915;53.718;19.946;2023-03-12T02:18:22;10.20;;;4.30;;
65764;SDS011;52915;53.718;19.946;2023-03-12T02:23:34;6.80;;;4.90;;
65764;SDS011;52915;53.718;19.946;2023-03-12T02:28:49;7.00;;;4.90;;
65764;SDS011;52915;53.718;19.946;2023-03-12T02:33:54;12.50;;;6.40;;
65764;SDS011;52915;53.718;19.946;2023-03-12T02:38:58;6.70;;;4.50;;
65764;SDS011;52915;53.718;19.946;2023-03-12T02:44:15;7.00;;;4.40;;
65764;SDS011;52915;53.718;19.946;2023-03-12T02:49:24;8.70;;;4.60;;
65764;SDS011;52915;53.718;19.946;2023-03-12T02:54:30;3.90;;;3.60;;
65764;SDS011;52915;53.718;19.946;2023-03-12T02:59:34;9.60;;;5.00;;
65764;SDS011;52915;53.718;19.946;2023-03-12T03:04:38;6.50;;;3.80;;
65764;SDS011;52915;53.718;19.946;2023-03-12T03:09:43;6.90;;;4.20;;
65764;SDS011;52915;53.718;19.946;2023-03-12T03:14:47;3.60;;;3.40;;
65764;SDS011;52915;53.718;19.946;2023-03-12T03:19:52;8.80;;;5.30;;
65764;SDS011;52915;53.718;19.946;2023-03-12T03:24:56;7.60;;;5.00;;
65764;SDS011;52915;53.718;19.946;2023-03-12T03:29:59;11.90;;;5.90;;
65764;SDS011;52915;53.718;19.946;2023-03-12T03:35:04;6.70;;;4.80;;
65764;SDS011;52915;53.718;19.946;2023-03-12T03:40:09;10.80;;;5.00;;
65764;SDS011;52915;53.718;19.946;2023-03-12T03:45:14;5.90;;;3.20;;
65764;SDS011;52915;53.718;19.946;2023-03-12T03:50:18;6.80;;;3.70;;
65764;SDS011;52915;53.718;19.946;2023-03-12T03:55:22;7.70;;;3.10;;
65764;SDS011;52915;53.718;19.946;2023-03-12T04:00:26;9.10;;;3.10;;
65764;SDS011;52915;53.718;19.946;2023-03-12T04:05:30;6.20;;;3.10;;
65764;SDS011;52915;53.718;19.946;2023-03-12T04:10:36;8.20;;;2.80;;
65764;SDS011;52915;53.718;19.946;2023-03-12T04:15:46;1.80;;;1.70;;
65764;SDS011;52915;53.718;19.946;2023-03-12T04:20:50;2.80;;;1.80;;
65764;SDS011;52915;53.718;19.946;2023-03-12T04:25:54;4.80;;;2.00;;
65764;SDS011;52915;53.718;19.946;2023-03-12T04:31:00;2.00;;;1.60;;
65764;SDS011;52915;53.718;19.946;2023-03-12T04:36:05;3.50;;;2.30;;
65764;SDS011;52915;53.718;19.946;2023-03-12T04:41:12;4.80;;;1.90;;
65764;SDS011;52915;53.718;19.946;2023-03-12T04:46:17;7.30;;;3.60;;
65764;SDS011;52915;53.718;19.946;2023-03-12T04:51:21;14.70;;;5.90;;
65764;SDS011;52915;53.718;19.946;2023-03-12T04:56:25;5.50;;;3.70;;
65764;SDS011;52915;53.718;19.946;2023-03-12T05:01:31;39.10;;;9.20;;
65764;SDS011;52915;53.718;19.946;2023-03-12T05:06:37;44.20;;;11.70;;
65764;SDS011;52915;53.718;19.946;2023-03-12T05:11:40;10.30;;;7.20;;
65764;SDS011;52915;53.718;19.946;2023-03-12T05:16:45;11.90;;;6.50;;
65764;SDS011;52915;53.718;19.946;2023-03-12T05:21:49;4.10;;;3.50;;
65764;SDS011;52915;53.718;19.946;2023-03-12T05:26:53;24.10;;;9.00;;
65764;SDS011;52915;53.718;19.946;2023-03-12T05:31:57;10.50;;;3.80;;
65764;SDS011;52915;53.718;19.946;2023-03-12T05:37:01;10.00;;;2.90;;
65764;SDS011;52915;53.718;19.946;2023-03-12T05:42:05;121.70;;;64.80;;
65764;SDS011;52915;53.718;19.946;2023-03-12T05:47:09;11.20;;;8.70;;
65764;SDS011;52915;53.718;19.946;2023-03-12T05:52:15;3.30;;;2.70;;
65764;SDS011;52915;53.718;19.946;2023-03-12T05:57:18;13.20;;;4.20;;
65764;SDS011;52915;53.718;19.946;2023-03-12T06:02:24;10.10;;;4.50;;
65764;SDS011;52915;53.718;19.946;2023-03-12T06:07:28;14.00;;;5.60;;
65764;SDS011;52915;53.718;19.946;2023-03-12T06:12:34;11.10;;;5.20;;
65764;SDS011;52915;53.718;19.946;2023-03-12T06:17:40;9.60;;;3.50;;
65764;SDS011;52915;53.718;19.946;2023-03-12T06:22:43;7.50;;;4.20;;
65764;SDS011;52915;53.718;19.946;2023-03-12T06:27:48;5.80;;;2.50;;
65764;SDS011;52915;53.718;19.946;2023-03-12T06:32:52;8.70;;;6.10;;
65764;SDS011;52915;53.718;19.946;2023-03-12T06:37:56;7.30;;;2.90;;
65764;SDS011;52915;53.718;19.946;2023-03-12T06:43:00;4.70;;;2.80;;
65764;SDS011;52915;53.718;19.946;2023-03-12T06:48:04;8.80;;;4.50;;
65764;SDS011;52915;53.718;19.946;2023-03-12T06:53:08;4.70;;;3.30;;
65764;SDS011;52915;53.718;19.946;2023-03-12T06:58:12;6.20;;;4.30;;
65764;SDS011;52915;53.718;19.946;2023-03-12T07:03:17;6.30;;;2.40;;
65764;SDS011;52915;53.718;19.946;2023-03-12T07:08:22;8.60;;;4.60;;
65764;SDS011;52915;53.718;19.946;2023-03-12T07:13:26;6.20;;;3.90;;
65764;SDS011;52915;53.718;19.946;2023-03-12T07:18:30;6.70;;;4.10;;
65764;SDS011;52915;53.718;19.946;2023-03-12T07:23:35;9.20;;;4.00;;
65764;SDS011;52915;53.718;19.946;2023-03-12T07:28:39;8.90;;;4.80;;
65764;SDS011;52915;53.718;19.946;2023-03-12T07:33:44;7.20;;;4.20;;
65764;SDS011;52915;53.718;19.946;2023-03-12T07:38:48;11.70;;;5.30;;
65764;SDS011;52915;53.718;19.946;2023-03-12T07:43:53;16.50;;;6.50;;
65764;SDS011;52915;53.718;19.946;2023-03-12T07:48:58;11.30;;;6.20;;
65764;SDS011;52915;53.718;19.946;2023-03-12T07:54:02;4.30;;;3.60;;
65764;SDS011;52915;53.718;19.946;2023-03-12T07:59:07;3.90;;;2.90;;
65764;SDS011;52915;53.718;19.946;2023-03-12T08:04:11;3.90;;;2.20;;
65764;SDS011;52915;53.718;19.946;2023-03-12T08:09:15;6.30;;;2.80;;
65764;SDS011;52915;53.718;19.946;2023-03-12T08:14:19;6.60;;;3.50;;
65764;SDS011;52915;53.718;19.946;2023-03-12T08:19:23;10.70;;;2.50;;
65764;SDS011;52915;53.718;19.946;2023-03-12T08:24:28;7.20;;;3.40;;
65764;SDS011;52915;53.718;19.946;2023-03-12T08:29:32;6.20;;;3.20;;
65764;SDS011;52915;53.718;19.946;2023-03-12T08:34:37;5.80;;;2.60;;
65764;SDS011;52915;53.718;19.946;2023-03-12T08:39:41;7.10;;;3.40;;
65764;SDS011;52915;53.718;19.946;2023-03-12T08:44:45;9.60;;;3.50;;
65764;SDS011;52915;53.718;19.946;2023-03-12T08:49:49;3.30;;;2.30;;
65764;SDS011;52915;53.718;19.946;2023-03-12T08:54:53;22.20;;;8.00;;
65764;SDS011;52915;53.718;19.946;2023-03-12T08:59:57;18.90;;;4.50;;
65764;SDS011;52915;53.718;19.946;2023-03-12T09:05:01;23.40;;;7.20;;
65764;SDS011;52915;53.718;19.946;2023-03-12T09:10:07;13.10;;;4.90;;
65764;SDS011;52915;53.718;19.946;2023-03-12T09:15:11;26.00;;;10.80;;
65764;SDS011;52915;53.718;19.946;2023-03-12T09:20:16;14.60;;;5.80;;
65764;SDS011;52915;53.718;19.946;2023-03-12T09:25:20;18.50;;;6.60;;
65764;SDS011;52915;53.718;19.946;2023-03-12T09:30:26;11.80;;;5.60;;
65764;SDS011;52915;53.718;19.946;2023-03-12T09:35:32;7.90;;;3.10;;
65764;SDS011;52915;53.718;19.946;2023-03-12T09:40:36;5.30;;;3.20;;
65764;SDS011;52915;53.718;19.946;2023-03-12T09:45:44;9.90;;;4.60;;
65764;SDS011;52915;53.718;19.946;2023-03-12T09:50:51;3.20;;;2.60;;
65764;SDS011;52915;53.718;19.946;2023-03-12T09:55:57;6.10;;;3.10;;
65764;SDS011;52915;53.718;19.946;2023-03-12T10:06:44;10.20;;;4.70;;
65764;SDS011;52915;53.718;19.946;2023-03-12T10:18:18;11.30;;;6.30;;
65764;SDS011;52915;53.718;19.946;2023-03-12T10:28:21;15.30;;;7.10;;
65764;SDS011;52915;53.718;19.946;2023-03-12T10:33:50;38.80;;;17.90;;
65764;SDS011;52915;53.718;19.946;2023-03-12T10:38:58;14.70;;;7.50;;
65764;SDS011;52915;53.718;19.946;2023-03-12T10:44:06;9.90;;;6.80;;
65764;SDS011;52915;53.718;19.946;2023-03-12T10:54:38;57.50;;;24.60;;
65764;SDS011;52915;53.718;19.946;2023-03-12T11:04:50;34.10;;;13.50;;
65764;SDS011;52915;53.718;19.946;2023-03-12T11:10:17;26.30;;;11.20;;
65764;SDS011;52915;53.718;19.946;2023-03-12T11:26:32;15.40;;;6.90;;
65764;SDS011;52915;53.718;19.946;2023-03-12T11:43:23;35.10;;;20.80;;
65764;SDS011;52915;53.718;19.946;2023-03-12T11:59:52;57.10;;;18.80;;
65764;SDS011;52915;53.718;19.946;2023-03-12T12:16:41;11.50;;;5.50;;
65764;SDS011;52915;53.718;19.946;2023-03-12T12:27:39;6.60;;;3.20;;
65764;SDS011;52915;53.718;19.946;2023-03-12T12:32:58;18.00;;;7.90;;
65764;SDS011;52915;53.718;19.946;2023-03-12T12:38:38;6.30;;;4.00;;
65764;SDS011;52915;53.718;19.946;2023-03-12T12:44:11;17.00;;;9.00;;
65764;SDS011;52915;53.718;19.946;2023-03-12T12:49:35;16.00;;;9.70;;
65764;SDS011;52915;53.718;19.946;2023-03-12T13:05:47;5.80;;;4.00;;
65764;SDS011;52915;53.718;19.946;2023-03-12T13:11:03;10.20;;;5.00;;
65764;SDS011;52915;53.718;19.946;2023-03-12T13:16:36;15.40;;;10.10;;
65764;SDS011;52915;53.718;19.946;2023-03-12T13:21:50;5.20;;;3.10;;
65764;SDS011;52915;53.718;19.946;2023-03-12T13:27:28;17.20;;;7.20;;
65764;SDS011;52915;53.718;19.946;2023-03-12T13:49:02;13.20;;;5.90;;
65764;SDS011;52915;53.718;19.946;2023-03-12T13:54:16;6.70;;;4.90;;
65764;SDS011;52915;53.718;19.946;2023-03-12T13:59:22;14.90;;;5.60;;
65764;SDS011;52915;53.718;19.946;2023-03-12T14:04:33;22.50;;;9.30;;
65764;SDS011;52915;53.718;19.946;2023-03-12T14:09:56;22.80;;;10.40;;
65764;SDS011;52915;53.718;19.946;2023-03-12T14:20:38;9.30;;;3.50;;
65764;SDS011;52915;53.718;19.946;2023-03-12T14:25:45;39.80;;;16.60;;
65764;SDS011;52915;53.718;19.946;2023-03-12T14:36:04;15.80;;;7.70;;
65764;SDS011;52915;53.718;19.946;2023-03-12T14:41:19;19.90;;;7.60;;
65764;SDS011;52915;53.718;19.946;2023-03-12T14:46:31;8.60;;;4.80;;
65764;SDS011;52915;53.718;19.946;2023-03-12T14:51:35;10.40;;;5.50;;
65764;SDS011;52915;53.718;19.946;2023-03-12T14:56:43;16.90;;;9.50;;
65764;SDS011;52915;53.718;19.946;2023-03-12T15:01:47;17.70;;;8.40;;
65764;SDS011;52915;53.718;19.946;2023-03-12T15:06:57;14.50;;;6.80;;
65764;SDS011;52915;53.718;19.946;2023-03-12T15:12:20;24.80;;;12.10;;
65764;SDS011;52915;53.718;19.946;2023-03-12T15:17:28;20.90;;;9.70;;
65764;SDS011;52915;53.718;19.946;2023-03-12T15:22:34;16.00;;;9.00;;
65764;SDS011;52915;53.718;19.946;2023-03-12T15:27:39;10.80;;;6.40;;
65764;SDS011;52915;53.718;19.946;2023-03-12T15:33:05;22.10;;;10.00;;
65764;SDS011;52915;53.718;19.946;2023-03-12T15:38:16;30.60;;;14.30;;
65764;SDS011;52915;53.718;19.946;2023-03-12T15:43:23;17.50;;;9.50;;
65764;SDS011;52915;53.718;19.946;2023-03-12T15:48:38;26.50;;;11.60;;
65764;SDS011;52915;53.718;19.946;2023-03-12T15:53:43;30.20;;;14.20;;
65764;SDS011;52915;53.718;19.946;2023-03-12T15:58:58;44.90;;;22.10;;
65764;SDS011;52915;53.718;19.946;2023-03-12T16:04:05;32.20;;;12.90;;
65764;SDS011;52915;53.718;19.946;2023-03-12T16:09:31;18.50;;;8.50;;
65764;SDS011;52915;53.718;19.946;2023-03-12T16:14:38;17.20;;;7.70;;
65764;SDS011;52915;53.718;19.946;2023-03-12T16:19:44;68.50;;;26.60;;
65764;SDS011;52915;53.718;19.946;2023-03-12T16:24:49;143.10;;;53.90;;
65764;SDS011;52915;53.718;19.946;2023-03-12T16:29:55;213.60;;;84.20;;
65764;SDS011;52915;53.718;19.946;2023-03-12T16:35:00;258.00;;;95.80;;
65764;SDS011;52915;53.718;19.946;2023-03-12T16:40:06;163.80;;;59.30;;
65764;SDS011;52915;53.718;19.946;2023-03-12T16:45:14;139.80;;;54.90;;
65764;SDS011;52915;53.718;19.946;2023-03-12T16:50:21;261.70;;;93.70;;
65764;SDS011;52915;53.718;19.946;2023-03-12T16:55:27;188.80;;;69.60;;
65764;SDS011;52915;53.718;19.946;2023-03-12T17:00:33;155.10;;;49.50;;
65764;SDS011;52915;53.718;19.946;2023-03-12T17:05:38;103.20;;;38.60;;
65764;SDS011;52915;53.718;19.946;2023-03-12T17:10:42;150.60;;;51.60;;
65764;SDS011;52915;53.718;19.946;2023-03-12T17:15:49;287.70;;;98.90;;
65764;SDS011;52915;53.718;19.946;2023-03-12T17:20:53;299.50;;;109.90;;
65764;SDS011;52915;53.718;19.946;2023-03-12T17:26:01;292.40;;;98.80;;
65764;SDS011;52915;53.718;19.946;2023-03-12T17:31:10;214.90;;;78.00;;
65764;SDS011;52915;53.718;19.946;2023-03-12T17:36:14;194.80;;;68.60;;
65764;SDS011;52915;53.718;19.946;2023-03-12T17:41:17;265.40;;;93.80;;
65764;SDS011;52915;53.718;19.946;2023-03-12T17:46:29;209.70;;;74.30;;
65764;SDS011;52915;53.718;19.946;2023-03-12T17:51:34;173.30;;;60.90;;
65764;SDS011;52915;53.718;19.946;2023-03-12T17:56:37;284.20;;;103.20;;
65764;SDS011;52915;53.718;19.946;2023-03-12T18:01:41;308.20;;;115.60;;
65764;SDS011;52915;53.718;19.946;2023-03-12T18:06:45;353.80;;;121.60;;
65764;SDS011;52915;53.718;19.946;2023-03-12T18:11:50;329.40;;;114.30;;
65764;SDS011;52915;53.718;19.946;2023-03-12T18:16:54;267.30;;;87.50;;
65764;SDS011;52915;53.718;19.946;2023-03-12T18:21:58;267.70;;;80.50;;
65764;SDS011;52915;53.718;19.946;2023-03-12T18:27:02;118.70;;;43.20;;
65764;SDS011;52915;53.718;19.946;2023-03-12T18:32:07;149.40;;;54.10;;
65764;SDS011;52915;53.718;19.946;2023-03-12T18:37:11;195.90;;;75.20;;
65764;SDS011;52915;53.718;19.946;2023-03-12T18:42:15;183.40;;;69.80;;
65764;SDS011;52915;53.718;19.946;2023-03-12T18:47:20;166.20;;;66.80;;
65764;SDS011;52915;53.718;19.946;2023-03-12T18:52:27;171.90;;;68.60;;
65764;SDS011;52915;53.718;19.946;2023-03-12T18:57:32;106.00;;;42.70;;
65764;SDS011;52915;53.718;19.946;2023-03-12T19:02:39;109.30;;;46.10;;
65764;SDS011;52915;53.718;19.946;2023-03-12T19:07:51;101.80;;;36.00;;
65764;SDS011;52915;53.718;19.946;2023-03-12T19:12:58;134.70;;;48.00;;
65764;SDS011;52915;53.718;19.946;2023-03-12T19:18:02;72.70;;;28.20;;
65764;SDS011;52915;53.718;19.946;2023-03-12T19:23:10;122.90;;;46.80;;
65764;SDS011;52915;53.718;19.946;2023-03-12T19:28:14;85.60;;;34.80;;
65764;SDS011;52915;53.718;19.946;2023-03-12T19:33:19;73.70;;;27.50;;
65764;SDS011;52915;53.718;19.946;2023-03-12T19:38:24;63.30;;;28.50;;
65764;SDS011;52915;53.718;19.946;2023-03-12T19:43:28;157.10;;;65.50;;
65764;SDS011;52915;53.718;19.946;2023-03-12T19:48:32;191.50;;;61.90;;
65764;SDS011;52915;53.718;19.946;2023-03-12T19:53:37;153.00;;;60.80;;
65764;SDS011;52915;53.718;19.946;2023-03-12T19:58:41;112.50;;;43.00;;
65764;SDS011;52915;53.718;19.946;2023-03-12T20:03:45;106.00;;;43.80;;
65764;SDS011;52915;53.718;19.946;2023-03-12T20:08:50;103.40;;;42.20;;
65764;SDS011;52915;53.718;19.946;2023-03-12T20:13:55;95.90;;;39.70;;
65764;SDS011;52915;53.718;19.946;2023-03-12T20:19:01;122.00;;;50.60;;
65764;SDS011;52915;53.718;19.946;2023-03-12T20:24:06;117.90;;;50.30;;
65764;SDS011;52915;53.718;19.946;2023-03-12T20:29:10;115.40;;;42.80;;
65764;SDS011;52915;53.718;19.946;2023-03-12T20:34:14;149.70;;;56.80;;
65764;SDS011;52915;53.718;19.946;2023-03-12T20:39:18;158.00;;;60.30;;
65764;SDS011;52915;53.718;19.946;2023-03-12T20:44:22;135.80;;;49.80;;
65764;SDS011;52915;53.718;19.946;2023-03-12T20:49:26;147.40;;;63.00;;
65764;SDS011;52915;53.718;19.946;2023-03-12T20:54:31;214.70;;;80.60;;
65764;SDS011;52915;53.718;19.946;2023-03-12T20:59:35;213.80;;;73.50;;
65764;SDS011;52915;53.718;19.946;2023-03-12T21:04:40;199.40;;;73.50;;
65764;SDS011;52915;53.718;19.946;2023-03-12T21:09:45;184.70;;;70.40;;
65764;SDS011;52915;53.718;19.946;2023-03-12T21:14:49;187.90;;;72.70;;
65764;SDS011;52915;53.718;19.946;2023-03-12T21:19:54;92.40;;;35.60;;
65764;SDS011;52915;53.718;19.946;2023-03-12T21:24:58;100.30;;;35.10;;
65764;SDS011;52915;53.718;19.946;2023-03-12T21:30:03;169.30;;;58.20;;
65764;SDS011;52915;53.718;19.946;2023-03-12T21:35:09;117.40;;;39.30;;
65764;SDS011;52915;53.718;19.946;2023-03-12T21:40:14;75.70;;;26.40;;
65764;SDS011;52915;53.718;19.946;2023-03-12T21:45:21;108.20;;;32.50;;
65764;SDS011;52915;53.718;19.946;2023-03-12T21:50:30;45.60;;;15.80;;
65764;SDS011;52915;53.718;19.946;2023-03-12T21:55:34;62.60;;;21.10;;
65764;SDS011;52915;53.718;19.946;2023-03-12T22:00:39;44.40;;;17.10;;
65764;SDS011;52915;53.718;19.946;2023-03-12T22:05:49;115.70;;;44.30;;
65764;SDS011;52915;53.718;19.946;2023-03-12T22:10:54;362.90;;;133.80;;
65764;SDS011;52915;53.718;19.946;2023-03-12T22:15:59;274.60;;;87.90;;
65764;SDS011;52915;53.718;19.946;2023-03-12T22:21:05;146.70;;;52.90;;
65764;SDS011;52915;53.718;19.946;2023-03-12T22:26:09;115.40;;;51.00;;
65764;SDS011;52915;53.718;19.946;2023-03-12T22:31:13;121.30;;;45.50;;
65764;SDS011;52915;53.718;19.946;2023-03-12T22:36:18;76.50;;;31.10;;
65764;SDS011;52915;53.718;19.946;2023-03-12T22:41:25;79.70;;;32.50;;
65764;SDS011;52915;53.718;19.946;2023-03-12T22:46:31;141.80;;;43.10;;
65764;SDS011;52915;53.718;19.946;2023-03-12T22:51:35;130.40;;;36.30;;
65764;SDS011;52915;53.718;19.946;2023-03-12T22:56:39;69.00;;;20.10;;
65764;SDS011;52915;53.718;19.946;2023-03-12T23:01:43;38.90;;;15.10;;
65764;SDS011;52915;53.718;19.946;2023-03-12T23:06:47;56.40;;;22.00;;
65764;SDS011;52915;53.718;19.946;2023-03-12T23:11:52;61.20;;;18.10;;
65764;SDS011;52915;53.718;19.946;2023-03-12T23:16:55;78.70;;;22.40;;
65764;SDS011;52915;53.718;19.946;2023-03-12T23:21:59;73.10;;;24.30;;
65764;SDS011;52915;53.718;19.946;2023-03-12T23:27:04;39.00;;;15.80;;
65764;SDS011;52915;53.718;19.946;2023-03-12T23:32:07;52.10;;;18.00;;
65764;SDS011;52915;53.718;19.946;2023-03-12T23:37:11;50.40;;;16.20;;
65764;SDS011;52915;53.718;19.946;2023-03-12T23:42:16;22.10;;;10.20;;
65764;SDS011;52915;53.718;19.946;2023-03-12T23:47:20;18.40;;;8.60;;
65764;SDS011;52915;53.718;19.946;2023-03-12T23:52:26;15.20;;;7.20;;
65764;SDS011;52915;53.718;19.946;2023-03-12T23:57:30;16.30;;;6.80;;
